Time;durP1;ratioP1;P1;durP2;ratioP2;P2;SDS_P1;SDS_P2;PMS_P1;PMS_P2;Temp;Humidity;BMP_temperature;BMP_pressure;BME280_temperature;BME280_humidity;BME280_pressure;Samples;Min_cycle;Max_cycle;Signal;HPM_P1;HPM_P2
2020/12/12 00:01:03;;;;;;;13.90;9.73;;;5.00;99.50;;;;;;5028572;28;20129;-75
2020/12/12 00:03:30;;;;;;;18.02;11.88;;;5.00;99.50;;;;;;5029066;28;20049;-74
2020/12/12 00:05:56;;;;;;;20.33;10.93;;;5.00;99.60;;;;;;5030499;28;20564;-75
2020/12/12 00:08:23;;;;;;;16.42;10.88;;;5.00;99.50;;;;;;5030349;28;20046;-75
2020/12/12 00:10:49;;;;;;;18.10;9.80;;;5.00;99.50;;;;;;5041202;28;20073;-75
2020/12/12 00:13:16;;;;;;;15.75;10.68;;;5.00;99.50;;;;;;5029614;28;20124;-75
2020/12/12 00:15:43;;;;;;;14.48;10.63;;;5.00;99.40;;;;;;5033094;28;20055;-75
2020/12/12 00:18:09;;;;;;;15.90;9.90;;;5.00;99.50;;;;;;5036031;28;21710;-75
2020/12/12 00:20:36;;;;;;;13.82;9.63;;;5.00;99.40;;;;;;5030756;28;20505;-75
2020/12/12 00:23:03;;;;;;;16.95;10.90;;;5.00;99.40;;;;;;5029347;28;20084;-75
2020/12/12 00:25:29;;;;;;;18.15;10.63;;;5.00;99.40;;;;;;5028884;28;20057;-75
2020/12/12 00:27:55;;;;;;;16.35;10.40;;;5.10;99.20;;;;;;5029000;28;20076;-75
2020/12/12 00:30:22;;;;;;;16.75;10.82;;;5.00;99.30;;;;;;5030142;28;20533;-75
2020/12/12 00:32:48;;;;;;;15.27;9.90;;;5.00;99.20;;;;;;5029156;28;20558;-75
2020/12/12 00:35:15;;;;;;;15.95;9.95;;;5.10;99.20;;;;;;5041949;28;20132;-75
2020/12/12 00:37:41;;;;;;;15.05;11.07;;;5.10;99.20;;;;;;5031481;28;20077;-75
2020/12/12 00:40:07;;;;;;;16.23;10.88;;;5.00;99.20;;;;;;5028656;28;20574;-75
2020/12/12 00:42:34;;;;;;;16.85;11.23;;;5.00;99.30;;;;;;5028761;28;20072;-75
2020/12/12 00:45:00;;;;;;;15.75;11.00;;;5.00;99.40;;;;;;5028638;28;20049;-75
2020/12/12 00:47:26;;;;;;;19.88;11.90;;;5.00;99.40;;;;;;5030955;28;20165;-75
2020/12/12 00:49:53;;;;;;;15.38;11.00;;;5.00;99.40;;;;;;5032384;28;20111;-75
2020/12/12 00:52:19;;;;;;;18.45;12.10;;;5.00;99.30;;;;;;5030440;28;20087;-75
2020/12/12 00:54:45;;;;;;;14.88;9.35;;;5.00;99.40;;;;;;5033881;28;20072;-75
2020/12/12 00:57:12;;;;;;;17.63;11.43;;;5.00;99.40;;;;;;5027108;28;20049;-75
2020/12/12 00:59:38;;;;;;;20.88;11.55;;;5.10;99.50;;;;;;5046763;28;20133;-75
2020/12/12 01:02:05;;;;;;;18.70;12.38;;;5.10;99.40;;;;;;5032576;28;20445;-75
2020/12/12 01:04:31;;;;;;;17.60;11.20;;;5.00;99.50;;;;;;5028511;28;20055;-75
2020/12/12 01:06:57;;;;;;;16.10;11.60;;;5.10;99.50;;;;;;5029368;28;20046;-75
2020/12/12 01:09:24;;;;;;;19.27;12.35;;;5.10;99.60;;;;;;5037589;28;20124;-75
2020/12/12 01:11:51;;;;;;;22.17;12.90;;;5.10;99.50;;;;;;5037875;28;20541;-75
2020/12/12 01:14:18;;;;;;;17.48;12.27;;;5.10;99.50;;;;;;5027609;28;20475;-75
2020/12/12 01:16:44;;;;;;;16.08;10.23;;;5.10;99.60;;;;;;5039715;28;20055;-75
2020/12/12 01:19:11;;;;;;;17.83;11.00;;;5.10;99.70;;;;;;5042853;28;20513;-75
2020/12/12 01:21:37;;;;;;;19.17;11.88;;;5.10;99.70;;;;;;5037653;28;20083;-75
2020/12/12 01:24:05;;;;;;;16.60;11.10;;;5.20;99.80;;;;;;5036990;28;20129;-75
2020/12/12 01:26:32;;;;;;;16.15;10.90;;;5.20;99.60;;;;;;5026207;28;20132;-75
2020/12/12 01:28:59;;;;;;;12.73;9.30;;;5.20;99.60;;;;;;5028138;28;20418;-75
2020/12/12 01:31:28;;;;;;;16.50;8.35;;;5.20;99.60;;;;;;5030465;28;20054;-75
2020/12/12 01:33:54;;;;;;;13.75;8.93;;;5.30;99.60;;;;;;5029590;28;20099;-75
2020/12/12 01:36:21;;;;;;;17.45;9.27;;;5.20;99.60;;;;;;5036073;28;20139;-75
2020/12/12 01:38:47;;;;;;;15.65;10.15;;;5.20;99.60;;;;;;5035914;28;20136;-75
2020/12/12 01:41:16;;;;;;;14.70;9.45;;;5.20;99.60;;;;;;5027103;28;20052;-75
2020/12/12 01:43:52;;;;;;;12.88;8.60;;;5.20;99.70;;;;;;5029475;28;20157;-75
2020/12/12 01:46:26;;;;;;;16.30;10.55;;;5.30;99.60;;;;;;5029260;28;20053;-75
2020/12/12 01:48:54;;;;;;;13.35;9.25;;;5.30;99.40;;;;;;5040898;28;20069;-75
2020/12/12 01:51:21;;;;;;;13.18;8.88;;;5.30;99.40;;;;;;5029838;28;20103;-75
2020/12/12 01:53:50;;;;;;;18.27;10.40;;;5.30;99.30;;;;;;5026609;28;20041;-75
2020/12/12 01:56:17;;;;;;;16.30;9.48;;;5.40;99.20;;;;;;5043325;28;20128;-75
2020/12/12 01:58:44;;;;;;;14.50;9.00;;;5.40;99.40;;;;;;5033399;28;20076;-75
2020/12/12 02:01:13;;;;;;;12.55;8.65;;;5.30;99.30;;;;;;5016716;28;20037;-75
2020/12/12 02:03:42;;;;;;;16.95;10.23;;;5.30;99.40;;;;;;5035114;28;20533;-75
2020/12/12 02:06:13;;;;;;;14.15;9.32;;;5.30;99.30;;;;;;5026523;28;20465;-75
2020/12/12 02:08:40;;;;;;;17.98;10.77;;;5.30;99.40;;;;;;5028560;28;20049;-75
2020/12/12 02:11:15;;;;;;;14.02;9.15;;;5.30;99.30;;;;;;5026238;28;20084;-75
2020/12/12 02:13:47;;;;;;;20.10;11.82;;;5.30;99.40;;;;;;5028481;28;20427;-75
2020/12/12 02:16:23;;;;;;;14.68;9.52;;;5.30;99.40;;;;;;5044655;28;20049;-75
2020/12/12 02:18:50;;;;;;;13.20;8.93;;;5.30;99.40;;;;;;5047392;28;20080;-75
2020/12/12 02:21:16;;;;;;;15.48;10.63;;;5.30;99.40;;;;;;5029806;28;20130;-75
2020/12/12 02:23:42;;;;;;;18.27;11.73;;;5.30;99.40;;;;;;5031192;28;20142;-75
2020/12/12 02:26:08;;;;;;;16.60;10.60;;;5.30;99.40;;;;;;5050010;28;20049;-75
2020/12/12 02:28:53;;;;;;;14.65;10.00;;;5.30;99.50;;;;;;5030216;28;20525;-75
2020/12/12 02:31:25;;;;;;;14.82;9.90;;;5.30;99.40;;;;;;5026189;28;20128;-75
2020/12/12 02:33:51;;;;;;;18.05;11.07;;;5.30;99.40;;;;;;5039617;28;20124;-75
2020/12/12 02:36:18;;;;;;;15.90;9.35;;;5.30;99.40;;;;;;5040771;28;20059;-75
2020/12/12 02:38:44;;;;;;;18.52;11.68;;;5.30;99.30;;;;;;5045934;28;20052;-75
2020/12/12 02:41:11;;;;;;;17.75;11.02;;;5.30;99.30;;;;;;5030514;28;20481;-75
2020/12/12 02:43:37;;;;;;;15.82;10.77;;;5.30;99.30;;;;;;5029989;28;21416;-75
2020/12/12 02:46:03;;;;;;;18.25;11.13;;;5.30;99.30;;;;;;5028612;28;20061;-75
2020/12/12 02:48:30;;;;;;;17.77;10.57;;;5.30;99.40;;;;;;5030125;28;20517;-75
2020/12/12 02:50:56;;;;;;;18.58;11.15;;;5.30;99.30;;;;;;5030110;28;20133;-75
2020/12/12 02:53:22;;;;;;;17.90;11.40;;;5.30;99.50;;;;;;5030005;28;20128;-75
2020/12/12 02:55:49;;;;;;;14.55;10.25;;;5.30;99.50;;;;;;5019748;28;20042;-75
2020/12/12 02:58:16;;;;;;;16.42;10.05;;;5.30;99.40;;;;;;5029694;28;20124;-75
2020/12/12 03:00:42;;;;;;;15.98;10.15;;;5.30;99.50;;;;;;5024198;28;20049;-76
2020/12/12 03:03:08;;;;;;;17.73;11.20;;;5.30;99.60;;;;;;5031199;28;20400;-75
2020/12/12 03:05:35;;;;;;;15.18;10.30;;;5.20;99.40;;;;;;5030405;28;20053;-75
2020/12/12 03:08:01;;;;;;;15.85;10.48;;;5.30;99.50;;;;;;5031179;28;20084;-75
2020/12/12 03:10:27;;;;;;;19.48;12.45;;;5.20;99.50;;;;;;5030079;28;20057;-75
2020/12/12 03:12:54;;;;;;;17.40;11.15;;;5.20;99.50;;;;;;5030605;28;20053;-75
2020/12/12 03:15:20;;;;;;;16.25;10.63;;;5.20;99.50;;;;;;5030164;28;20521;-75
2020/12/12 03:17:46;;;;;;;18.42;11.63;;;5.20;99.60;;;;;;5029711;28;20237;-75
2020/12/12 03:20:13;;;;;;;20.48;12.48;;;5.20;99.90;;;;;;5030084;28;20045;-75
2020/12/12 03:22:39;;;;;;;19.83;12.13;;;5.20;99.70;;;;;;5028604;28;20045;-76
2020/12/12 03:25:05;;;;;;;15.65;10.70;;;5.20;99.70;;;;;;5029633;28;20077;-75
2020/12/12 03:27:32;;;;;;;16.55;10.65;;;5.20;99.90;;;;;;5029745;28;20045;-75
2020/12/12 03:29:58;;;;;;;18.70;11.35;;;5.10;99.90;;;;;;5026963;28;20049;-75
2020/12/12 03:32:30;;;;;;;17.50;10.23;;;5.10;99.90;;;;;;5029060;28;20057;-75
2020/12/12 03:34:56;;;;;;;23.55;12.65;;;5.10;99.90;;;;;;5027228;28;20099;-75
2020/12/12 03:37:24;;;;;;;19.65;11.75;;;5.10;99.90;;;;;;5029404;28;20434;-75
2020/12/12 03:39:51;;;;;;;17.40;10.68;;;5.10;99.90;;;;;;5027953;28;20538;-75
2020/12/12 03:42:17;;;;;;;17.00;10.88;;;5.10;99.90;;;;;;5027531;28;20099;-75
2020/12/12 03:44:44;;;;;;;22.65;13.45;;;5.10;99.90;;;;;;5028697;28;20169;-75
2020/12/12 03:47:10;;;;;;;21.85;12.50;;;5.10;99.90;;;;;;5027243;28;20088;-75
2020/12/12 03:49:37;;;;;;;16.08;10.43;;;5.10;99.90;;;;;;5028226;28;20060;-75
2020/12/12 03:52:03;;;;;;;18.02;11.07;;;5.10;99.90;;;;;;5029746;28;20523;-75
2020/12/12 03:54:30;;;;;;;19.05;12.15;;;5.10;99.90;;;;;;5028665;28;20467;-75
2020/12/12 03:56:56;;;;;;;18.80;11.82;;;5.10;99.90;;;;;;5029074;28;20155;-75
2020/12/12 03:59:23;;;;;;;21.20;11.75;;;5.10;99.90;;;;;;5027828;28;20076;-75
2020/12/12 04:01:49;;;;;;;21.15;13.60;;;5.10;99.90;;;;;;5027704;28;20129;-75
2020/12/12 04:04:16;;;;;;;21.10;12.18;;;5.10;99.90;;;;;;5028085;28;20108;-75
2020/12/12 04:06:42;;;;;;;22.20;12.40;;;5.10;99.90;;;;;;5027559;28;20137;-75
2020/12/12 04:09:09;;;;;;;18.42;11.70;;;5.20;99.90;;;;;;5026530;28;20052;-75
2020/12/12 04:11:35;;;;;;;18.25;11.85;;;5.20;99.90;;;;;;5029329;28;20091;-75
2020/12/12 04:14:02;;;;;;;17.20;11.13;;;5.20;99.90;;;;;;5028616;28;20463;-75
2020/12/12 04:16:28;;;;;;;17.02;10.68;;;5.20;99.90;;;;;;5026420;28;20689;-75
2020/12/12 04:18:55;;;;;;;15.73;9.68;;;5.20;99.90;;;;;;5027821;28;20053;-75
2020/12/12 04:21:21;;;;;;;15.45;10.65;;;5.20;99.90;;;;;;5028779;28;20053;-75
2020/12/12 04:23:48;;;;;;;18.67;12.00;;;5.20;99.90;;;;;;5027420;28;20041;-75
2020/12/12 04:26:14;;;;;;;18.55;11.93;;;5.20;99.90;;;;;;5028287;28;20049;-75
2020/12/12 04:28:41;;;;;;;21.88;12.68;;;5.20;99.90;;;;;;5028823;28;20148;-75
2020/12/12 04:31:09;;;;;;;18.20;10.75;;;5.20;99.90;;;;;;5028400;28;20144;-75
2020/12/12 04:33:35;;;;;;;14.38;9.48;;;5.20;99.90;;;;;;5026756;28;20214;-75
2020/12/12 04:36:03;;;;;;;13.13;9.18;;;5.20;99.90;;;;;;5028064;28;20133;-75
2020/12/12 04:38:31;;;;;;;14.27;10.15;;;5.20;99.90;;;;;;5026518;28;20140;-75
2020/12/12 04:41:08;;;;;;;16.48;10.75;;;5.20;99.90;;;;;;5017215;28;20037;-75
2020/12/12 04:43:34;;;;;;;16.67;11.18;;;5.20;99.90;;;;;;5028914;28;20551;-75
2020/12/12 04:46:01;;;;;;;12.93;9.07;;;5.20;99.90;;;;;;5027472;28;20057;-76
2020/12/12 04:48:27;;;;;;;16.33;10.65;;;5.20;99.90;;;;;;5024824;28;20554;-75
2020/12/12 04:50:54;;;;;;;14.57;9.32;;;5.20;99.90;;;;;;5028090;28;20136;-75
2020/12/12 04:53:26;;;;;;;13.20;9.27;;;5.20;99.90;;;;;;5028400;28;20053;-76
2020/12/12 04:55:55;;;;;;;12.38;8.05;;;5.20;99.90;;;;;;5022069;28;20045;-75
2020/12/12 04:58:23;;;;;;;13.07;8.27;;;5.20;99.90;;;;;;5028874;28;20126;-75
2020/12/12 05:00:52;;;;;;;13.38;9.23;;;5.20;99.90;;;;;;5028272;28;20080;-75
2020/12/12 05:03:21;;;;;;;13.45;8.73;;;5.20;99.90;;;;;;5027910;28;20128;-75
2020/12/12 05:05:48;;;;;;;9.90;7.30;;;5.30;99.90;;;;;;5028599;28;20049;-75
2020/12/12 05:08:14;;;;;;;9.32;7.00;;;5.30;99.80;;;;;;5027285;28;20052;-75
2020/12/12 05:10:43;;;;;;;9.25;6.53;;;5.30;99.90;;;;;;5027610;28;20156;-75
2020/12/12 05:13:20;;;;;;;11.23;6.47;;;5.20;99.90;;;;;;5021249;28;20141;-75
2020/12/12 05:15:48;;;;;;;12.00;8.18;;;5.20;99.90;;;;;;5027286;28;20065;-75
2020/12/12 05:18:15;;;;;;;11.63;8.02;;;5.20;99.90;;;;;;5027220;28;20119;-75
2020/12/12 05:20:41;;;;;;;13.75;9.13;;;5.20;99.90;;;;;;5027878;28;20080;-75
2020/12/12 05:23:19;;;;;;;11.18;7.30;;;5.30;99.80;;;;;;5027508;28;20056;-75
2020/12/12 05:25:47;;;;;;;11.43;7.25;;;5.30;99.70;;;;;;5025905;28;20045;-75
2020/12/12 05:28:15;;;;;;;9.40;6.65;;;5.30;99.70;;;;;;5026982;28;20136;-75
2020/12/12 05:30:43;;;;;;;11.30;7.97;;;5.20;99.70;;;;;;5026457;28;20148;-75
2020/12/12 05:33:12;;;;;;;9.35;7.00;;;5.30;99.80;;;;;;5027963;28;20064;-75
2020/12/12 05:35:40;;;;;;;10.63;7.47;;;5.30;99.80;;;;;;5026289;28;20128;-75
2020/12/12 05:38:09;;;;;;;9.07;6.43;;;5.30;99.90;;;;;;5028000;28;20458;-75
2020/12/12 05:40:36;;;;;;;16.00;8.68;;;5.20;99.80;;;;;;5025647;28;20073;-75
2020/12/12 05:43:04;;;;;;;11.27;7.97;;;5.20;99.80;;;;;;5027466;28;20089;-75
2020/12/12 05:45:30;;;;;;;14.13;9.57;;;5.30;99.90;;;;;;5026785;28;20067;-75
2020/12/12 05:47:57;;;;;;;12.35;6.90;;;5.30;99.90;;;;;;5027924;28;20049;-75
2020/12/12 05:50:24;;;;;;;10.98;7.45;;;5.30;99.80;;;;;;5027247;28;20068;-75
2020/12/12 05:52:53;;;;;;;11.48;8.48;;;5.20;99.80;;;;;;5031791;28;20051;-75
2020/12/12 05:55:28;;;;;;;12.65;7.90;;;5.30;99.80;;;;;;5030695;28;20081;-75
2020/12/12 05:57:56;;;;;;;12.88;8.20;;;5.30;99.80;;;;;;5029946;28;20053;-75
2020/12/12 06:00:25;;;;;;;12.60;8.82;;;5.30;99.70;;;;;;5030211;28;20092;-75
2020/12/12 06:03:16;;;;;;;13.50;8.68;;;5.30;99.70;;;;;;5030769;28;20045;-75
2020/12/12 06:05:48;;;;;;;10.68;7.72;;;5.30;99.80;;;;;;5028806;28;20073;-75
2020/12/12 06:08:38;;;;;;;15.50;9.93;;;5.30;99.80;;;;;;5029866;28;20149;-75
2020/12/12 06:11:07;;;;;;;13.07;8.85;;;5.30;99.90;;;;;;5026553;28;20073;-75
2020/12/12 06:13:38;;;;;;;14.07;9.07;;;5.30;99.90;;;;;;5030756;28;20054;-75
2020/12/12 06:16:07;;;;;;;16.15;10.70;;;5.30;99.90;;;;;;5030074;28;20085;-75
2020/12/12 06:19:01;;;;;;;15.98;10.43;;;5.30;99.90;;;;;;5030005;28;20139;-75
2020/12/12 06:21:28;;;;;;;12.77;7.72;;;5.20;99.90;;;;;;5031127;28;20481;-75
2020/12/12 06:23:57;;;;;;;12.10;8.35;;;5.20;99.90;;;;;;5030514;28;20121;-75
2020/12/12 06:26:54;;;;;;;14.27;10.02;;;5.20;99.90;;;;;;5029974;28;20132;-75
2020/12/12 06:29:22;;;;;;;22.75;12.23;;;5.20;99.90;;;;;;5031144;28;20049;-75
2020/12/12 06:31:54;;;;;;;14.88;9.60;;;5.10;99.90;;;;;;5029298;28;20060;-75
2020/12/12 06:34:47;;;;;;;16.63;9.07;;;5.10;99.90;;;;;;5030566;28;20120;-75
2020/12/12 06:37:32;;;;;;;11.38;8.15;;;5.20;99.90;;;;;;5030331;28;20136;-75
2020/12/12 06:40:07;;;;;;;9.88;7.07;;;5.20;99.90;;;;;;5025404;28;20570;-75
2020/12/12 06:42:36;;;;;;;12.32;8.55;;;5.20;99.90;;;;;;5030184;28;20152;-75
2020/12/12 06:45:22;;;;;;;15.15;9.60;;;5.20;99.90;;;;;;5029986;28;20086;-75
2020/12/12 06:47:53;;;;;;;11.15;7.72;;;5.20;99.90;;;;;;5029543;28;20125;-76
2020/12/12 06:50:21;;;;;;;12.23;8.45;;;5.20;99.90;;;;;;5030508;28;20085;-75
2020/12/12 06:52:53;;;;;;;11.70;8.07;;;5.30;99.90;;;;;;5030285;28;20094;-75
2020/12/12 06:55:21;;;;;;;13.68;8.70;;;5.30;99.90;;;;;;5030013;28;20414;-75
2020/12/12 06:57:55;;;;;;;12.85;8.43;;;5.30;99.90;;;;;;5028794;28;20458;-75
2020/12/12 07:00:29;;;;;;;11.55;7.40;;;5.30;99.90;;;;;;5028434;28;20061;-75
2020/12/12 07:03:04;;;;;;;12.82;8.48;;;5.30;99.90;;;;;;5027743;28;20291;-75
2020/12/12 07:05:36;;;;;;;16.50;9.23;;;5.30;99.90;;;;;;5027476;28;20064;-75
2020/12/12 07:08:10;;;;;;;15.40;9.60;;;5.30;99.90;;;;;;5030627;28;20052;-75
2020/12/12 07:10:39;;;;;;;10.45;6.97;;;5.30;99.90;;;;;;5029538;28;20129;-74
2020/12/12 07:13:08;;;;;;;9.50;7.00;;;5.30;99.90;;;;;;5027275;28;20130;-75
2020/12/12 07:15:38;;;;;;;10.70;6.32;;;5.40;99.90;;;;;;5030404;28;20471;-75
2020/12/12 07:18:09;;;;;;;12.10;7.80;;;5.40;99.90;;;;;;5029892;28;20358;-75
2020/12/12 07:20:37;;;;;;;8.73;6.40;;;5.50;99.90;;;;;;5028607;28;20529;-75
2020/12/12 07:23:05;;;;;;;15.40;8.98;;;5.50;99.90;;;;;;5030379;28;20525;-74
2020/12/12 07:25:33;;;;;;;11.15;7.90;;;5.40;99.90;;;;;;5029907;28;20077;-75
2020/12/12 07:28:00;;;;;;;12.18;6.50;;;5.40;99.90;;;;;;5030269;28;20081;-75
2020/12/12 07:30:31;;;;;;;10.93;6.95;;;5.50;99.90;;;;;;5029316;28;20051;-75
2020/12/12 07:32:57;;;;;;;10.82;5.90;;;5.50;99.90;;;;;;5030703;28;20471;-75
2020/12/12 07:35:24;;;;;;;11.07;6.70;;;5.50;99.90;;;;;;5030836;28;20133;-75
2020/12/12 07:37:50;;;;;;;15.35;7.90;;;5.50;99.90;;;;;;5029847;28;20046;-75
2020/12/12 07:40:19;;;;;;;12.00;7.35;;;5.50;99.90;;;;;;5028652;28;20487;-75
2020/12/12 07:42:48;;;;;;;10.98;6.43;;;5.50;99.90;;;;;;5030508;28;20196;-75
2020/12/12 07:48:04;;;;;;;;;;;5.60;99.90;;;;;;5027984;28;20053;-75
2020/12/12 07:50:31;;;;;;;32.23;20.33;;;5.50;99.90;;;;;;5028009;28;19921;-75
2020/12/12 07:53:15;;;;;;;27.90;18.67;;;5.60;99.90;;;;;;5038481;28;20420;-75
2020/12/12 07:55:51;;;;;;;12.15;7.97;;;5.60;99.90;;;;;;5042688;28;20060;-75
2020/12/12 07:58:19;;;;;;;10.35;7.07;;;5.60;99.90;;;;;;5037259;28;20042;-75
2020/12/12 08:00:55;;;;;;;9.68;5.72;;;5.60;99.90;;;;;;5027901;28;20522;-75
2020/12/12 08:03:22;;;;;;;7.78;5.10;;;5.60;99.90;;;;;;5030311;28;20063;-75
2020/12/12 08:05:48;;;;;;;8.98;5.18;;;5.60;99.90;;;;;;5024976;28;20099;-75
2020/12/12 08:08:15;;;;;;;12.60;8.63;;;5.60;99.90;;;;;;5023591;28;20161;-75
2020/12/12 08:10:41;;;;;;;9.75;5.25;;;5.60;99.90;;;;;;5025343;28;20080;-75
2020/12/12 08:13:09;;;;;;;6.72;3.88;;;5.70;99.90;;;;;;5035408;28;20045;-75
2020/12/12 08:15:40;;;;;;;8.68;5.32;;;5.70;99.90;;;;;;5030703;28;20042;-75
2020/12/12 08:18:14;;;;;;;6.50;3.95;;;5.70;99.90;;;;;;5032617;28;20107;-75
2020/12/12 08:20:40;;;;;;;;;;;5.70;99.90;;;;;;5020981;28;20170;-75
2020/12/12 08:23:13;;;;;;;5.53;3.55;;;5.70;99.90;;;;;;5033847;28;20346;-76
2020/12/12 08:25:41;;;;;;;8.27;5.38;;;5.70;99.90;;;;;;5043871;28;20057;-74
2020/12/12 08:28:08;;;;;;;8.27;4.55;;;5.70;99.90;;;;;;5033945;28;20046;-75
2020/12/12 08:30:34;;;;;;;7.95;5.25;;;5.70;99.90;;;;;;5029450;28;20080;-75
2020/12/12 08:33:11;;;;;;;7.75;4.95;;;5.70;99.90;;;;;;5041633;28;20524;-75
2020/12/12 08:35:51;;;;;;;9.60;5.57;;;5.80;99.90;;;;;;5032601;28;20125;-75
2020/12/12 08:38:18;;;;;;;9.63;6.38;;;5.80;99.90;;;;;;5026170;28;20091;-75
2020/12/12 08:40:45;;;;;;;7.32;4.68;;;5.80;99.90;;;;;;5028262;28;20046;-75
2020/12/12 08:43:13;;;;;;;8.20;5.95;;;5.80;99.90;;;;;;5027827;28;20479;-75
2020/12/12 08:45:42;;;;;;;18.40;11.13;;;5.80;99.90;;;;;;5028109;28;20495;-75
2020/12/12 08:48:13;;;;;;;13.70;7.47;;;5.80;99.90;;;;;;5027444;28;20050;-75
2020/12/12 08:50:53;;;;;;;11.60;7.50;;;5.80;99.90;;;;;;5025633;28;20081;-75
2020/12/12 08:53:21;;;;;;;12.70;8.48;;;5.90;99.90;;;;;;5028626;28;20132;-75
2020/12/12 08:56:00;;;;;;;13.23;8.40;;;5.90;99.90;;;;;;5028108;28;20133;-75
2020/12/12 08:58:57;;;;;;;12.30;8.35;;;6.00;99.90;;;;;;5027432;28;20149;-75
2020/12/12 09:01:24;;;;;;;13.05;7.90;;;6.00;99.90;;;;;;5019543;28;20128;-76
2020/12/12 09:04:15;;;;;;;16.27;8.55;;;6.00;99.90;;;;;;5025171;28;20077;-75
2020/12/12 09:06:44;;;;;;;15.32;9.35;;;6.00;99.90;;;;;;5021592;28;20100;-75
2020/12/12 09:09:28;;;;;;;9.35;6.70;;;6.10;99.90;;;;;;5027271;28;20135;-75
2020/12/12 09:12:08;;;;;;;15.38;8.40;;;6.20;99.90;;;;;;5027266;28;20475;-75
2020/12/12 09:14:42;;;;;;;11.02;7.00;;;6.20;99.90;;;;;;5029268;28;20049;-74
2020/12/12 09:17:09;;;;;;;;;;;6.20;99.90;;;;;;5026839;28;20042;-75
2020/12/12 09:19:37;;;;;;;12.55;7.53;;;6.20;99.90;;;;;;5027408;28;19924;-75
2020/12/12 09:22:11;;;;;;;13.70;8.95;;;6.20;99.90;;;;;;5028795;28;20103;-74
2020/12/12 09:24:37;;;;;;;25.63;14.43;;;6.30;99.90;;;;;;5025090;28;20045;-75
2020/12/12 09:27:04;;;;;;;20.00;14.25;;;6.30;99.90;;;;;;5031740;28;20080;-75
2020/12/12 09:29:31;;;;;;;20.95;12.48;;;6.40;99.90;;;;;;5032206;28;20136;-75
2020/12/12 09:31:57;;;;;;;10.45;6.68;;;6.40;99.90;;;;;;5030945;28;20092;-75
2020/12/12 09:34:25;;;;;;;17.17;10.43;;;6.40;99.90;;;;;;5032291;28;20060;-75
2020/12/12 09:36:52;;;;;;;13.60;8.65;;;6.50;99.90;;;;;;5028659;28;20494;-75
2020/12/12 09:39:19;;;;;;;13.93;8.95;;;6.50;99.90;;;;;;5030958;28;20037;-75
2020/12/12 09:41:45;;;;;;;17.85;11.00;;;6.50;99.90;;;;;;5030155;28;20167;-76
2020/12/12 09:44:12;;;;;;;15.95;9.65;;;6.50;99.90;;;;;;5030066;28;20048;-75
2020/12/12 09:46:38;;;;;;;12.02;7.75;;;6.60;99.90;;;;;;5031309;28;20072;-75
2020/12/12 09:49:05;;;;;;;13.07;8.38;;;6.70;99.90;;;;;;5032053;28;20053;-75
2020/12/12 09:51:32;;;;;;;9.05;6.45;;;6.70;99.90;;;;;;5029682;28;20129;-75
2020/12/12 09:53:59;;;;;;;7.80;5.32;;;6.70;99.90;;;;;;5030992;28;20050;-75
2020/12/12 09:56:25;;;;;;;9.57;7.53;;;6.70;99.90;;;;;;5029750;28;20046;-75
2020/12/12 09:58:52;;;;;;;11.15;7.22;;;6.80;99.90;;;;;;5030258;28;20042;-75
2020/12/12 10:01:18;;;;;;;12.30;7.50;;;6.80;99.90;;;;;;5028903;28;20045;-75
2020/12/12 10:03:45;;;;;;;5.75;4.10;;;6.80;99.80;;;;;;5031475;28;20045;-75
2020/12/12 10:06:11;;;;;;;8.90;5.30;;;6.80;99.80;;;;;;5031112;28;20520;-75
2020/12/12 10:08:38;;;;;;;11.05;7.63;;;6.80;99.70;;;;;;5030357;28;20084;-75
2020/12/12 10:11:05;;;;;;;6.90;5.30;;;6.90;99.80;;;;;;5030198;28;20562;-75
2020/12/12 10:13:32;;;;;;;10.13;6.88;;;6.80;99.80;;;;;;5031259;28;20045;-75
2020/12/12 10:15:58;;;;;;;6.85;5.05;;;6.80;99.90;;;;;;5029503;28;20137;-75
2020/12/12 10:18:24;;;;;;;15.77;7.82;;;6.90;99.80;;;;;;5031014;28;20053;-75
2020/12/12 10:20:52;;;;;;;9.35;5.80;;;7.00;99.80;;;;;;5031749;28;20056;-75
2020/12/12 10:23:19;;;;;;;9.30;5.90;;;6.90;99.60;;;;;;5028879;28;20045;-75
2020/12/12 10:25:45;;;;;;;7.03;4.78;;;7.00;99.70;;;;;;5019072;28;20129;-75
2020/12/12 10:28:11;;;;;;;11.50;6.57;;;6.90;99.90;;;;;;5030517;28;20136;-75
2020/12/12 10:30:38;;;;;;;9.45;6.00;;;6.80;99.90;;;;;;5030174;28;20128;-74
2020/12/12 10:33:05;;;;;;;7.57;5.25;;;6.90;99.90;;;;;;5029092;28;20474;-74
2020/12/12 10:35:32;;;;;;;11.13;5.90;;;6.90;99.90;;;;;;5028027;28;20775;-74
2020/12/12 10:37:59;;;;;;;10.60;6.88;;;6.90;99.90;;;;;;5028968;28;20053;-74
2020/12/12 10:40:59;;;;;;;7.07;4.78;;;6.90;99.90;;;;;;5029760;28;20128;-74
2020/12/12 10:43:13;;;;;;;11.85;6.93;;;6.90;99.90;;;;;;5025611;28;20129;-74
2020/12/12 10:45:41;;;;;;;9.45;6.50;;;6.90;99.90;;;;;;5029860;28;20127;-74
2020/12/12 10:48:08;;;;;;;8.35;5.72;;;7.00;99.90;;;;;;5027280;28;20049;-74
2020/12/12 10:50:34;;;;;;;8.55;5.45;;;7.00;99.90;;;;;;5028356;28;20487;-75
2020/12/12 10:53:01;;;;;;;9.20;5.47;;;7.00;99.90;;;;;;5029944;28;20091;-75
2020/12/12 10:55:28;;;;;;;11.00;6.30;;;7.10;99.90;;;;;;5027614;28;20092;-75
2020/12/12 10:57:54;;;;;;;11.43;7.63;;;7.10;99.70;;;;;;5027618;28;20140;-75
2020/12/12 11:00:25;;;;;;;9.45;5.63;;;7.10;99.70;;;;;;5030414;28;20128;-75
2020/12/12 11:02:52;;;;;;;6.45;4.22;;;7.20;99.50;;;;;;5024129;28;20049;-75
2020/12/12 11:05:20;;;;;;;8.65;5.03;;;7.20;99.40;;;;;;5030240;28;20049;-74
2020/12/12 11:07:51;;;;;;;8.30;5.07;;;7.20;99.30;;;;;;5024737;28;20072;-74
2020/12/12 11:10:18;;;;;;;6.15;4.15;;;7.30;99.20;;;;;;5029631;28;20052;-75
2020/12/12 11:12:45;;;;;;;10.07;6.30;;;7.20;99.10;;;;;;5030573;28;20104;-75
2020/12/12 11:15:13;;;;;;;9.00;6.47;;;7.30;99.30;;;;;;5012106;28;20053;-75
2020/12/12 11:17:44;;;;;;;10.73;6.53;;;7.30;99.40;;;;;;5030246;28;20053;-75
2020/12/12 11:20:12;;;;;;;9.30;5.35;;;7.40;99.00;;;;;;5023903;28;20554;-75
2020/12/12 11:22:38;;;;;;;122.28;12.73;;;7.40;99.00;;;;;;5027943;28;20077;-75
2020/12/12 11:25:06;;;;;;;81.63;9.05;;;7.40;98.80;;;;;;5027322;28;20076;-75
2020/12/12 11:27:33;;;;;;;24.20;6.05;;;7.40;98.80;;;;;;5028826;28;20136;-75
2020/12/12 11:30:00;;;;;;;135.10;13.05;;;7.30;99.00;;;;;;5028299;28;20136;-75
2020/12/12 11:32:26;;;;;;;84.18;9.07;;;7.30;98.60;;;;;;5028529;28;20144;-75
2020/12/12 11:46:14;;;;;;;185.45;13.98;;;7.10;98.80;;;;;;5027117;28;20050;-74
2020/12/12 11:48:42;;;;;;;193.15;15.20;;;7.20;98.70;;;;;;5024832;28;20144;-74
2020/12/12 11:51:09;;;;;;;624.42;33.05;;;7.30;98.60;;;;;;5011024;28;20038;-74
2020/12/12 11:53:35;;;;;;;332.48;18.45;;;7.20;97.90;;;;;;5028792;28;20439;-75
2020/12/12 11:56:01;;;;;;;289.73;20.13;;;7.20;98.50;;;;;;5037943;28;20461;-74
2020/12/12 11:58:28;;;;;;;703.17;35.33;;;7.20;98.40;;;;;;5031116;28;20046;-74
2020/12/12 12:00:54;;;;;;;690.55;40.63;;;7.20;98.20;;;;;;5027589;28;20133;-75
2020/12/12 12:03:20;;;;;;;220.20;19.60;;;7.00;98.40;;;;;;5029097;28;20059;-74
2020/12/12 12:05:49;;;;;;;210.20;18.67;;;7.10;99.00;;;;;;5017836;28;20057;-75
2020/12/12 12:08:26;;;;;;;69.32;11.88;;;7.20;98.60;;;;;;5028533;28;20465;-75
2020/12/12 12:11:08;;;;;;;167.13;14.38;;;7.30;98.70;;;;;;5025845;28;20336;-74
2020/12/12 12:13:35;;;;;;;89.10;12.32;;;7.30;98.00;;;;;;5028884;28;20103;-75
2020/12/12 12:16:03;;;;;;;94.90;13.57;;;7.30;98.20;;;;;;5028605;28;20091;-74
2020/12/12 12:18:29;;;;;;;49.67;12.35;;;7.30;98.10;;;;;;5027661;28;20049;-74
2020/12/12 12:20:57;;;;;;;19.48;9.48;;;7.40;98.30;;;;;;5028279;28;20125;-76
2020/12/12 12:23:24;;;;;;;28.80;9.70;;;7.50;98.30;;;;;;5029132;28;20077;-75
2020/12/12 12:25:52;;;;;;;76.80;12.70;;;7.60;98.00;;;;;;5027452;28;20371;-75
2020/12/12 12:28:19;;;;;;;85.05;11.98;;;7.50;97.60;;;;;;5028129;28;20462;-75
2020/12/12 12:30:46;;;;;;;16.60;8.55;;;7.50;97.80;;;;;;5027861;28;20049;-76
2020/12/12 12:33:13;;;;;;;20.15;8.80;;;7.50;97.80;;;;;;5028282;28;20045;-75
2020/12/12 12:35:39;;;;;;;9.65;5.93;;;7.50;98.10;;;;;;5028322;28;20560;-75
2020/12/12 12:38:06;;;;;;;9.93;5.80;;;7.60;98.20;;;;;;5028138;28;20120;-75
2020/12/12 12:40:32;;;;;;;9.30;6.60;;;7.60;97.90;;;;;;5027427;28;20428;-75
2020/12/12 12:42:59;;;;;;;10.82;6.70;;;7.60;97.90;;;;;;5028383;28;20045;-75
2020/12/12 12:45:25;;;;;;;13.15;7.82;;;7.60;97.80;;;;;;5028610;28;20100;-75
2020/12/12 12:47:52;;;;;;;15.55;7.35;;;7.70;97.70;;;;;;5025649;28;20465;-75
2020/12/12 12:50:18;;;;;;;7.80;5.47;;;7.80;98.00;;;;;;5025989;28;20107;-75
2020/12/12 12:52:45;;;;;;;10.10;5.50;;;7.80;97.60;;;;;;5025482;28;20049;-75
2020/12/12 12:55:11;;;;;;;7.72;4.78;;;7.90;97.60;;;;;;5024181;28;20111;-75
2020/12/12 12:57:38;;;;;;;12.85;7.15;;;8.00;96.80;;;;;;5027643;28;20064;-75
2020/12/12 13:00:05;;;;;;;7.13;4.70;;;7.90;96.60;;;;;;5027748;28;20042;-75
2020/12/12 13:02:32;;;;;;;8.07;4.78;;;7.90;96.70;;;;;;5027933;28;20129;-75
2020/12/12 13:04:58;;;;;;;8.63;4.63;;;7.80;96.50;;;;;;5026589;28;20041;-75
2020/12/12 13:07:25;;;;;;;13.40;7.95;;;7.70;96.80;;;;;;5009763;28;20095;-75